Aérodrome :
LOGIN :

S'inscrire | Disclaimer

   EN    FR    IT 

 










Légende :    VFR   VFR Marginal   IFR   IFR Intensif   IFR Très Intensif
Visi : 
Plafond : 
>= 8 km
>= 3000ft
5 à 8 km
1000 à 3000 ft
1500m à 5 km
500 à 1000 ft
800 à 1500m
200 à 500 ft
< 800m
< 200 ft
Symboles :   Orages  Brouillard  Fortes neiges  Fortes précipitations  Vent > 20 kt
SIGMETs :   Divers  Orages  Givrage  Turbulence  Onde Orograph.  Cendres Volcan.







- Altitude de l'aérodrome : 119 ft
- Code IATA : WAT


EIWF - Waterford

DERNIER METAR :
  • 172030Z VRB02KT 9999 SCT026 BKN036 07/05 Q1028

METARs EXPIRÉS :
  • 172000Z VRB03KT 9999 BKN029 08/06 Q1028
  • 171930Z 26004KT 190V300 9999 BKN045 07/04 Q1028
  • 171900Z 27004KT 230V310 9999 FEW020 BKN048 07/04 Q1028
  • 171830Z 28005KT 250V310 9999 FEW025 SCT039 BKN053 06/04 Q1029

TAF TAF EIWF
Valide du 17 à 21h jusqu'au 18 à 06h UTC


172000Z 1721/1806 27006KT 9999 BKN035
BECMG 1723/1802 BKN014
TEMPO 1801/1806 4000 -DZ BKN007
ATIS : +353 51 877 000
Pas de NOTAMs connus pour ce terrain.



MET'MAP, la Météo Aéronautique d'un coup d'oeil ! - Copyright ORBIFLY Décembre 2007 - Disclaimer

ORBIFLY MET'MAP TEAM :

Programmation & Développement : Alexandra Zaïnal
Conception & Développement : Baudouin d'Aumeries
Co-Programmation & Développement : Marc-Olivier Méhu
Soutien technique & logistique : Manuel Goepfert

Contact : metmap@orbifly.com




SOURCES & CREDITS :

   NOAA